createdAt,value
2017-11-04T00:00:04.529Z,97793.81
2017-11-04T00:00:36.182Z,97790.89
2017-11-04T00:01:07.829Z,97792.17
2017-11-04T00:01:39.521Z,97793.02
2017-11-04T00:02:11.394Z,97791.33
2017-11-04T00:02:43.045Z,97793.45
2017-11-04T00:03:14.698Z,97795.16
2017-11-04T00:03:46.349Z,97790.05
2017-11-04T00:04:18.002Z,97790.91
2017-11-04T00:04:49.650Z,97790.89
2017-11-04T00:05:21.354Z,97792.16
2017-11-04T00:05:53.002Z,97793.39
2017-11-04T00:06:24.650Z,97791.70
2017-11-04T00:06:56.298Z,97791.70
2017-11-04T00:07:27.950Z,97792.96
2017-11-04T00:07:59.602Z,97788.26
2017-11-04T00:08:31.257Z,97786.55
2017-11-04T00:09:02.914Z,97783.58
2017-11-04T00:09:34.573Z,97793.79
2017-11-04T00:10:06.329Z,97797.16
2017-11-04T00:10:38.030Z,97791.19
2017-11-04T00:11:09.678Z,97785.22
2017-11-04T00:11:41.329Z,97792.38
2017-11-04T00:12:13.180Z,97790.67
2017-11-04T00:12:45.148Z,97791.91
2017-11-04T00:13:16.826Z,97788.96
2017-11-04T00:13:48.469Z,97792.33
2017-11-04T00:14:20.114Z,97788.96
2017-11-04T00:14:51.765Z,97791.04
2017-11-04T00:15:23.418Z,97794.02
2017-11-04T00:15:55.121Z,97786.77
2017-11-04T00:16:26.773Z,97796.94
2017-11-04T00:16:58.421Z,97782.46
2017-11-04T00:17:30.069Z,97785.91
2017-11-04T00:18:01.714Z,97789.31
2017-11-04T00:18:33.521Z,97788.04
2017-11-04T00:19:05.170Z,97781.66
2017-11-04T00:19:37.108Z,97784.63
2017-11-04T00:20:08.762Z,97783.36
2017-11-04T00:20:40.413Z,97785.02
2017-11-04T00:21:12.329Z,97780.33
2017-11-04T00:21:44.026Z,97783.73
2017-11-04T00:22:15.678Z,97783.36
2017-11-04T00:22:47.325Z,97782.87
2017-11-04T00:23:19.220Z,97777.36
2017-11-04T00:23:50.870Z,97780.38
2017-11-04T00:24:22.522Z,97780.33
2017-11-04T00:24:54.448Z,97781.59
2017-11-04T00:25:26.101Z,97785.01
2017-11-04T00:25:57.749Z,97779.04
2017-11-04T00:26:29.398Z,97779.91
2017-11-04T00:27:01.042Z,97775.69
2017-11-04T00:27:32.701Z,97777.84
2017-11-04T00:28:04.349Z,97778.28
2017-11-04T00:28:36.002Z,97777.00
2017-11-04T00:29:07.649Z,97775.34
2017-11-04T00:29:39.302Z,97771.95
2017-11-04T00:30:11.178Z,97777.50
2017-11-04T00:30:42.830Z,97776.22
2017-11-04T00:31:14.483Z,97771.10
2017-11-04T00:31:46.372Z,97775.84
2017-11-04T00:32:18.026Z,97772.00
2017-11-04T00:32:49.693Z,97770.33
2017-11-04T00:33:21.518Z,97770.76
2017-11-04T00:33:53.169Z,97766.56
2017-11-04T00:34:24.824Z,97770.39
2017-11-04T00:34:56.478Z,97774.23
2017-11-04T00:35:28.130Z,97767.00
2017-11-04T00:35:59.779Z,97770.91
2017-11-04T00:36:31.446Z,97767.54
2017-11-04T00:37:03.097Z,97765.42
2017-11-04T00:37:34.746Z,97766.30
2017-11-04T00:38:06.422Z,97775.28
2017-11-04T00:38:38.073Z,97762.94
2017-11-04T00:39:09.741Z,97764.23
2017-11-04T00:39:41.394Z,97767.63
2017-11-04T00:40:13.049Z,97763.80
2017-11-04T00:40:44.897Z,97767.22
2017-11-04T00:41:16.555Z,97763.86
2017-11-04T00:41:48.220Z,97764.27
2017-11-04T00:42:19.922Z,97770.25
2017-11-04T00:42:51.574Z,97761.30
2017-11-04T00:43:23.455Z,97760.87
2017-11-04T00:43:55.110Z,97765.19
2017-11-04T00:44:26.757Z,97767.37
2017-11-04T00:44:58.406Z,97762.69
2017-11-04T00:45:30.050Z,97757.59
2017-11-04T00:46:01.698Z,97758.88
2017-11-04T00:46:33.351Z,97760.16
2017-11-04T00:47:04.997Z,97756.32
2017-11-04T00:47:36.876Z,97769.53
2017-11-04T00:48:08.539Z,97755.97
2017-11-04T00:48:40.192Z,97765.75
2017-11-04T00:49:11.837Z,97764.47
2017-11-04T00:49:43.490Z,97764.91
2017-11-04T00:50:15.414Z,97766.59
2017-11-04T00:50:47.065Z,97767.03
2017-11-04T00:51:18.722Z,97766.97
2017-11-04T00:51:50.369Z,97770.44
2017-11-04T00:52:22.286Z,97764.91
2017-11-04T00:52:54.136Z,97770.02
2017-11-04T00:53:25.879Z,97769.59
2017-11-04T00:53:57.530Z,97766.23
2017-11-04T00:54:29.187Z,97763.69
2017-11-04T00:55:00.834Z,97767.09
2017-11-04T00:55:32.477Z,97760.72
2017-11-04T00:56:04.125Z,97758.58
2017-11-04T00:56:35.769Z,97761.15
2017-11-04T00:57:07.598Z,97765.47
2017-11-04T00:57:39.246Z,97760.78
2017-11-04T00:58:10.959Z,97765.03
2017-11-04T00:58:42.843Z,97759.95
2017-11-04T00:59:14.494Z,97769.73
2017-11-04T00:59:46.137Z,97765.06
2017-11-04T01:00:17.786Z,97764.25
2017-11-04T01:00:49.481Z,97763.83
2017-11-04T01:01:21.130Z,97756.59
2017-11-04T01:01:52.782Z,97762.14
2017-11-04T01:02:24.429Z,97765.98
2017-11-04T01:02:56.077Z,97759.20
2017-11-04T01:03:27.754Z,97758.79
2017-11-04T01:03:59.579Z,97759.66
2017-11-04T01:04:31.585Z,97766.04
2017-11-04T01:05:03.250Z,97771.98
2017-11-04T01:05:34.897Z,97757.52
2017-11-04T01:06:06.545Z,97762.63
2017-11-04T01:06:38.205Z,97760.06
2017-11-04T01:07:09.858Z,97762.62
2017-11-04T01:07:41.747Z,97766.03
2017-11-04T01:08:13.397Z,97754.98
2017-11-04T01:08:45.050Z,97762.27
2017-11-04T01:09:16.698Z,97760.14
2017-11-04T01:09:48.345Z,97756.31
2017-11-04T01:10:20.161Z,97759.73
2017-11-04T01:10:51.814Z,97755.05
2017-11-04T01:11:23.518Z,97755.09
2017-11-04T01:11:55.391Z,97757.65
2017-11-04T01:12:27.046Z,97755.09
2017-11-04T01:12:58.691Z,97752.98
2017-11-04T01:13:30.341Z,97753.84
2017-11-04T01:14:01.990Z,97752.13
2017-11-04T01:14:33.901Z,97752.56
2017-11-04T01:15:05.548Z,97757.67
2017-11-04T01:15:37.297Z,97754.27
2017-11-04T01:16:08.949Z,97753.85
2017-11-04T01:16:40.642Z,97750.91
2017-11-04T01:17:12.300Z,97750.06
2017-11-04T01:17:44.171Z,97747.95
2017-11-04T01:18:15.830Z,97746.67
2017-11-04T01:18:47.474Z,97750.94
2017-11-04T01:19:19.135Z,97753.96
2017-11-04T01:19:51.047Z,97751.84
2017-11-04T01:20:22.697Z,97750.58
2017-11-04T01:20:54.354Z,97740.80
2017-11-04T01:21:26.005Z,97749.73
2017-11-04T01:21:58.261Z,97753.17
2017-11-04T01:22:30.184Z,97750.64
2017-11-04T01:23:02.098Z,97745.11
2017-11-04T01:23:33.766Z,97746.39
2017-11-04T01:24:05.644Z,97744.28
2017-11-04T01:24:37.293Z,97748.11
2017-11-04T01:25:08.944Z,97743.47
2017-11-04T01:25:40.604Z,97747.30
2017-11-04T01:26:12.282Z,97743.47
2017-11-04T01:26:44.234Z,97743.05
2017-11-04T01:27:16.077Z,97738.80
2017-11-04T01:27:47.733Z,97744.34
2017-11-04T01:28:19.385Z,97741.36
2017-11-04T01:28:51.029Z,97740.55
2017-11-04T01:29:22.751Z,97741.84
2017-11-04T01:29:54.450Z,97735.10
2017-11-04T01:30:26.342Z,97740.13
2017-11-04T01:30:57.993Z,97732.92
2017-11-04T01:31:29.646Z,97738.02
2017-11-04T01:32:01.575Z,97747.38
2017-11-04T01:32:34.250Z,97740.56
2017-11-04T01:33:05.902Z,97740.56
2017-11-04T01:33:37.554Z,97748.23
2017-11-04T01:34:11.234Z,97741.43
2017-11-04T01:34:42.877Z,97744.87
2017-11-04T01:35:14.806Z,97744.45
2017-11-04T01:35:46.458Z,97744.87
2017-11-04T01:36:18.110Z,97742.33
2017-11-04T01:36:49.762Z,97744.03
2017-11-04T01:37:21.414Z,97744.87
2017-11-04T01:37:53.065Z,97744.03
2017-11-04T01:38:24.717Z,97748.70
2017-11-04T01:38:56.603Z,97749.52
2017-11-04T01:39:28.314Z,97750.84
2017-11-04T01:39:59.973Z,97748.70
2017-11-04T01:40:31.840Z,97752.53
2017-11-04T01:41:03.489Z,97749.56
2017-11-04T01:41:35.137Z,97753.82
2017-11-04T01:42:06.786Z,97749.98
2017-11-04T01:42:38.438Z,97755.94
2017-11-04T01:43:10.264Z,97750.84
2017-11-04T01:43:41.910Z,97755.05
2017-11-04T01:44:13.569Z,97749.51
2017-11-04T01:44:45.269Z,97755.88
2017-11-04T01:45:16.918Z,97751.20
2017-11-04T01:45:48.873Z,97754.55
2017-11-04T01:46:20.574Z,97754.54
2017-11-04T01:46:52.464Z,97755.38
2017-11-04T01:47:24.118Z,97747.67
2017-11-04T01:47:55.774Z,97753.63
2017-11-04T01:48:26.970Z,97749.73
2017-11-04T01:48:58.724Z,97751.00
2017-11-04T01:49:30.372Z,97746.26
2017-11-04T01:50:02.066Z,97749.21
2017-11-04T01:50:33.957Z,97747.03
2017-11-04T01:51:05.609Z,97744.05
2017-11-04T01:51:37.258Z,97742.33
2017-11-04T01:52:08.957Z,97745.69
2017-11-04T01:52:40.811Z,97752.05
2017-11-04T01:53:12.780Z,97749.88
2017-11-04T01:53:44.429Z,97750.28
2017-11-04T01:54:16.077Z,97751.51
2017-11-04T01:54:47.730Z,97754.89
2017-11-04T01:55:19.381Z,97748.02
2017-11-04T01:55:51.033Z,97754.81
2017-11-04T01:56:22.703Z,97744.60
2017-11-04T01:56:54.581Z,97746.31
2017-11-04T01:57:26.273Z,97746.69
2017-11-04T01:57:57.926Z,97741.98
2017-11-04T01:58:29.630Z,97748.75
2017-11-04T01:59:01.277Z,97744.91
2017-11-04T01:59:32.927Z,97746.17
2017-11-04T02:00:04.577Z,97743.14
2017-11-04T02:00:36.226Z,97746.89
2017-11-04T02:01:08.024Z,97744.73
2017-11-04T02:01:39.674Z,97739.16
2017-11-04T02:02:11.325Z,97749.00
2017-11-04T02:02:42.974Z,97742.11
2017-11-04T02:03:14.625Z,97743.34
2017-11-04T02:03:46.453Z,97745.84
2017-11-04T02:04:18.105Z,97747.11
2017-11-04T02:04:49.758Z,97745.36
2017-11-04T02:05:21.415Z,97750.02
2017-11-04T02:05:53.122Z,97749.55
2017-11-04T02:06:24.775Z,97743.94
2017-11-04T02:06:56.439Z,97745.63
2017-11-04T02:07:28.341Z,97738.81
2017-11-04T02:07:59.998Z,97743.92
2017-11-04T02:08:31.654Z,97740.53
2017-11-04T02:09:03.306Z,97742.65
2017-11-04T02:09:35.216Z,97743.06
2017-11-04T02:10:06.873Z,97745.25
2017-11-04T02:10:38.704Z,97741.84
2017-11-04T02:11:10.407Z,97744.78
2017-11-04T02:11:42.090Z,97742.66
2017-11-04T02:12:13.747Z,97735.46
2017-11-04T02:12:45.401Z,97736.34
2017-11-04T02:13:17.058Z,97735.48
2017-11-04T02:13:48.718Z,97743.57
2017-11-04T02:14:20.379Z,97741.44
2017-11-04T02:14:52.251Z,97740.61
2017-11-04T02:15:23.909Z,97736.81
2017-11-04T02:15:55.570Z,97738.88
2017-11-04T02:16:27.466Z,97739.73
2017-11-04T02:16:59.124Z,97738.46
2017-11-04T02:17:30.774Z,97742.28
2017-11-04T02:18:02.439Z,97735.91
2017-11-04T02:18:34.094Z,97736.77
2017-11-04T02:19:05.753Z,97730.81
2017-11-04T02:19:37.641Z,97733.84
2017-11-04T02:20:09.293Z,97730.88
2017-11-04T02:20:40.938Z,97734.77
2017-11-04T02:21:12.581Z,97732.28
2017-11-04T02:21:44.270Z,97731.87
2017-11-04T02:22:15.967Z,97736.48
2017-11-04T02:22:47.613Z,97734.83
2017-11-04T02:23:19.442Z,97728.45
2017-11-04T02:23:51.093Z,97730.95
2017-11-04T02:24:22.754Z,97730.09
2017-11-04T02:24:54.413Z,97726.69
2017-11-04T02:25:26.074Z,97724.14
2017-11-04T02:25:57.725Z,97730.94
2017-11-04T02:26:29.600Z,97724.98
2017-11-04T02:27:01.438Z,97723.73
2017-11-04T02:27:33.191Z,97721.56
2017-11-04T02:28:04.861Z,97724.98
2017-11-04T02:28:36.782Z,97724.55
2017-11-04T02:29:08.434Z,97724.98
2017-11-04T02:29:40.085Z,97720.78
2017-11-04T02:30:11.730Z,97721.17
2017-11-04T02:30:43.380Z,97725.48
2017-11-04T02:31:15.029Z,97720.82
2017-11-04T02:31:46.834Z,97724.20
2017-11-04T02:32:18.583Z,97719.95
2017-11-04T02:32:50.233Z,97720.44
2017-11-04T02:33:21.921Z,97717.91
2017-11-04T02:33:53.578Z,97713.23
2017-11-04T02:34:25.234Z,97720.44
2017-11-04T02:34:57.087Z,97718.78
2017-11-04T02:35:28.745Z,97723.84
2017-11-04T02:36:00.394Z,97720.48
2017-11-04T02:36:32.048Z,97716.67
2017-11-04T02:37:03.697Z,97714.12
2017-11-04T02:37:35.350Z,97715.45
2017-11-04T02:38:07.204Z,97712.00
2017-11-04T02:38:38.861Z,97717.57
2017-11-04T02:39:10.543Z,97709.92
2017-11-04T02:39:42.197Z,97719.28
2017-11-04T02:40:13.846Z,97710.78
2017-11-04T02:40:45.490Z,97710.36
2017-11-04T02:41:17.138Z,97712.92
2017-11-04T02:41:48.966Z,97706.53
2017-11-04T02:42:20.618Z,97704.88
2017-11-04T02:42:52.261Z,97704.47
2017-11-04T02:43:23.984Z,97707.02
2017-11-04T02:43:55.638Z,97706.16
2017-11-04T02:44:27.285Z,97701.49
2017-11-04T02:44:58.930Z,97703.19
2017-11-04T02:45:30.573Z,97701.92
2017-11-04T02:46:03.234Z,97705.75
2017-11-04T02:46:34.885Z,97705.34
2017-11-04T02:47:06.534Z,97702.89
2017-11-04T02:47:38.181Z,97698.29
2017-11-04T02:48:09.858Z,97702.15
2017-11-04T02:48:41.554Z,97695.41
2017-11-04T02:49:13.206Z,97697.61
2017-11-04T02:49:44.849Z,97700.22
2017-11-04T02:50:16.493Z,97698.97
2017-11-04T02:50:48.142Z,97697.32
2017-11-04T02:51:19.838Z,97702.02
2017-11-04T02:51:51.662Z,97692.71
2017-11-04T02:52:23.432Z,97698.31
2017-11-04T02:52:55.082Z,97692.83
2017-11-04T02:53:26.958Z,97694.13
2017-11-04T02:53:58.666Z,97692.48
2017-11-04T02:54:30.316Z,97692.08
2017-11-04T02:55:01.961Z,97690.80
2017-11-04T02:55:33.790Z,97688.25
2017-11-04T02:56:05.481Z,97695.48
2017-11-04T02:56:37.141Z,97687.46
2017-11-04T02:57:08.825Z,97688.31
2017-11-04T02:57:40.482Z,97694.27
2017-11-04T02:58:12.141Z,97685.77
2017-11-04T02:58:43.790Z,97687.88
2017-11-04T02:59:15.437Z,97692.13
2017-11-04T02:59:47.097Z,97692.14
2017-11-04T03:00:18.983Z,97689.60
2017-11-04T03:00:50.633Z,97690.08
2017-11-04T03:01:22.322Z,97683.72
2017-11-04T03:01:53.969Z,97693.91
2017-11-04T03:02:25.831Z,97687.97
2017-11-04T03:02:57.499Z,97688.82
2017-11-04T03:03:29.149Z,97688.87
2017-11-04T03:04:00.802Z,97682.92
2017-11-04T03:04:32.445Z,97680.38
2017-11-04T03:05:04.377Z,97685.89
2017-11-04T03:05:36.029Z,97689.73
2017-11-04T03:06:07.677Z,97682.08
2017-11-04T03:06:39.325Z,97682.52
2017-11-04T03:07:10.970Z,97680.01
2017-11-04T03:07:42.618Z,97689.80
2017-11-04T03:08:14.533Z,97683.05
2017-11-04T03:08:46.181Z,97686.04
2017-11-04T03:09:17.837Z,97689.86
2017-11-04T03:09:49.485Z,97684.34
2017-11-04T03:10:21.134Z,97693.69
2017-11-04T03:10:52.786Z,97690.29
2017-11-04T03:11:24.441Z,97693.28
2017-11-04T03:11:56.094Z,97687.77
2017-11-04T03:12:27.877Z,97684.39
2017-11-04T03:12:59.528Z,97682.23
2017-11-04T03:13:31.230Z,97683.50
2017-11-04T03:14:02.903Z,97682.22
2017-11-04T03:14:34.557Z,97690.72
2017-11-04T03:15:06.209Z,97683.48
2017-11-04T03:15:37.857Z,97684.77
2017-11-04T03:16:09.515Z,97683.05
2017-11-04T03:16:41.165Z,97686.84
2017-11-04T03:17:13.062Z,97690.28
2017-11-04T03:17:44.718Z,97686.04
2017-11-04T03:18:16.909Z,97680.50
2017-11-04T03:18:48.554Z,97686.47
2017-11-04T03:19:20.242Z,97682.20
2017-11-04T03:19:51.894Z,97689.00
2017-11-04T03:20:23.546Z,97691.14
2017-11-04T03:20:55.202Z,97687.27
2017-11-04T03:21:26.861Z,97690.67
2017-11-04T03:21:58.762Z,97680.93
2017-11-04T03:22:30.418Z,97688.54
2017-11-04T03:23:02.091Z,97683.00
2017-11-04T03:23:33.991Z,97689.38
2017-11-04T03:24:05.694Z,97689.80
2017-11-04T03:24:37.350Z,97686.77
2017-11-04T03:25:09.228Z,97683.78
2017-11-04T03:25:40.877Z,97682.91
2017-11-04T03:26:12.530Z,97680.36
2017-11-04T03:26:44.182Z,97682.48
2017-11-04T03:27:15.830Z,97680.74
2017-11-04T03:27:47.477Z,97679.87
2017-11-04T03:28:19.126Z,97680.72
2017-11-04T03:28:50.773Z,97685.81
2017-11-04T03:29:22.422Z,97679.44
2017-11-04T03:29:54.229Z,97678.11
2017-11-04T03:30:25.882Z,97682.37
2017-11-04T03:30:57.534Z,97679.31
2017-11-04T03:31:29.193Z,97681.38
2017-11-04T03:32:00.850Z,97678.39
2017-11-04T03:32:32.514Z,97677.96
2017-11-04T03:33:04.209Z,97678.81
2017-11-04T03:33:36.108Z,97677.95
2017-11-04T03:34:07.758Z,97678.33
2017-11-04T03:34:39.638Z,97678.73
2017-11-04T03:35:11.342Z,97681.22
2017-11-04T03:35:42.996Z,97677.75
2017-11-04T03:36:14.650Z,97677.33
2017-11-04T03:36:46.292Z,97682.42
2017-11-04T03:37:17.937Z,97674.34
2017-11-04T03:37:49.582Z,97672.16
2017-11-04T03:38:21.451Z,97676.40
2017-11-04T03:38:53.101Z,97681.45
2017-11-04T03:39:24.749Z,97678.00
2017-11-04T03:39:56.422Z,97678.39
2017-11-04T03:40:28.128Z,97673.28
2017-11-04T03:41:00.022Z,97677.05
2017-11-04T03:41:31.673Z,97676.19
2017-11-04T03:42:03.315Z,97674.47
2017-11-04T03:42:34.969Z,97674.03
2017-11-04T03:43:06.624Z,97679.14
2017-11-04T03:43:38.265Z,97671.50
2017-11-04T03:44:09.917Z,97676.17
2017-11-04T03:44:41.572Z,97677.38
2017-11-04T03:45:13.226Z,97673.12
2017-11-04T03:45:44.918Z,97672.70
2017-11-04T03:46:16.561Z,97677.38
2017-11-04T03:46:48.205Z,97673.97
2017-11-04T03:47:19.854Z,97676.94
2017-11-04T03:47:51.501Z,97671.83
2017-11-04T03:48:23.141Z,97674.33
2017-11-04T03:48:54.784Z,97673.91
2017-11-04T03:49:26.425Z,97671.33
2017-11-04T03:49:58.074Z,97672.19
2017-11-04T03:50:29.719Z,97661.56
2017-11-04T03:51:01.407Z,97669.66
2017-11-04T03:51:33.162Z,97671.35
2017-11-04T03:52:04.829Z,97669.20
2017-11-04T03:52:36.521Z,97670.86
2017-11-04T03:53:08.358Z,97662.77
2017-11-04T03:53:40.033Z,97664.88
2017-11-04T03:54:11.685Z,97670.41
2017-11-04T03:54:43.331Z,97664.05
2017-11-04T03:55:15.029Z,97659.80
2017-11-04T03:55:46.914Z,97657.23
2017-11-04T03:56:18.561Z,97664.48
2017-11-04T03:56:50.211Z,97666.16
2017-11-04T03:57:21.865Z,97664.45
2017-11-04T03:57:53.513Z,97666.59
2017-11-04T03:58:25.158Z,97667.43
2017-11-04T03:58:56.809Z,97658.49
2017-11-04T03:59:28.466Z,97661.48
2017-11-04T04:00:00.350Z,97662.34
2017-11-04T04:00:32.063Z,97660.64
2017-11-04T04:01:03.946Z,97666.16
2017-11-04T04:01:35.597Z,97661.47
2017-11-04T04:02:07.252Z,97663.60
2017-11-04T04:02:38.902Z,97664.45
2017-11-04T04:03:10.822Z,97667.03
2017-11-04T04:03:42.663Z,97660.65
2017-11-04T04:04:14.412Z,97658.58
2017-11-04T04:04:46.274Z,97658.52
2017-11-04T04:05:18.201Z,97658.56
2017-11-04T04:05:49.902Z,97659.01
2017-11-04T04:06:21.553Z,97660.77
2017-11-04T04:06:53.232Z,97659.02
2017-11-04T04:07:24.890Z,97659.02
2017-11-04T04:07:56.544Z,97658.20
2017-11-04T04:08:28.198Z,97656.95
2017-11-04T04:08:59.856Z,97656.97
2017-11-04T04:09:31.518Z,97656.59
2017-11-04T04:10:03.394Z,97656.55
2017-11-04T04:10:35.067Z,97657.45
2017-11-04T04:11:06.791Z,97652.41
2017-11-04T04:11:38.441Z,97652.35
2017-11-04T04:12:10.086Z,97650.66
2017-11-04T04:12:41.911Z,97651.55
2017-11-04T04:13:13.562Z,97650.70
2017-11-04T04:13:45.216Z,97654.56
2017-11-04T04:14:16.867Z,97644.84
2017-11-04T04:14:48.510Z,97646.12
2017-11-04T04:15:20.166Z,97647.83
2017-11-04T04:15:51.821Z,97644.06
2017-11-04T04:16:23.711Z,97645.75
2017-11-04T04:16:55.366Z,97639.86
2017-11-04T04:17:27.020Z,97640.30
2017-11-04T04:17:58.946Z,97641.16
2017-11-04T04:18:30.598Z,97642.02
2017-11-04T04:19:02.254Z,97647.13
2017-11-04T04:19:33.897Z,97644.19
2017-11-04T04:20:05.537Z,97641.23
2017-11-04T04:20:37.189Z,97646.34
2017-11-04T04:21:08.837Z,97647.63
2017-11-04T04:21:40.485Z,97640.86
2017-11-04T04:22:12.374Z,97648.52
2017-11-04T04:22:44.334Z,97646.84
2017-11-04T04:23:16.219Z,97644.33
2017-11-04T04:23:47.926Z,97646.05
2017-11-04T04:24:19.578Z,97646.49
2017-11-04T04:24:51.230Z,97641.39
2017-11-04T04:25:22.878Z,97648.66
2017-11-04T04:25:54.525Z,97644.84
2017-11-04T04:26:26.415Z,97640.19
2017-11-04T04:26:58.082Z,97639.77
2017-11-04T04:27:29.765Z,97637.22
2017-11-04T04:28:01.676Z,97636.79
2017-11-04T04:28:33.330Z,97640.63
2017-11-04T04:29:04.977Z,97628.83
2017-11-04T04:29:36.628Z,97636.84
2017-11-04T04:30:08.858Z,97641.52
2017-11-04T04:30:40.521Z,97637.28
2017-11-04T04:31:12.448Z,97635.16
2017-11-04T04:31:44.097Z,97635.63
2017-11-04T04:32:15.932Z,97636.91
2017-11-04T04:32:47.625Z,97632.72
2017-11-04T04:33:19.278Z,97627.99
2017-11-04T04:33:50.921Z,97631.89
2017-11-04T04:34:22.570Z,97634.00
2017-11-04T04:34:54.222Z,97631.05
2017-11-04T04:35:25.888Z,97633.22
2017-11-04T04:35:57.556Z,97630.20
2017-11-04T04:36:29.201Z,97625.59
2017-11-04T04:37:01.104Z,97627.30
2017-11-04T04:37:32.812Z,97632.44
2017-11-04T04:38:04.607Z,97626.88
2017-11-04T04:38:36.266Z,97628.15
2017-11-04T04:39:07.913Z,97624.37
2017-11-04T04:39:39.562Z,97626.06
2017-11-04T04:40:11.209Z,97629.83
2017-11-04T04:40:42.866Z,97625.58
2017-11-04T04:41:14.525Z,97629.84
2017-11-04T04:41:49.689Z,97628.14
2017-11-04T04:42:21.345Z,97620.97
2017-11-04T04:42:53.053Z,97621.83
2017-11-04T04:43:25.024Z,97622.26
2017-11-04T04:43:56.786Z,97620.95
2017-11-04T04:44:28.450Z,97618.83
2017-11-04T04:45:00.118Z,97623.47
2017-11-04T04:45:32.003Z,97621.33
2017-11-04T04:46:03.658Z,97621.82
2017-11-04T04:46:35.318Z,97626.49
2017-11-04T04:47:06.977Z,97630.33
2017-11-04T04:47:38.629Z,97630.75
2017-11-04T04:48:10.294Z,97626.52
2017-11-04T04:48:42.161Z,97627.84
2017-11-04T04:49:13.809Z,97631.24
2017-11-04T04:49:45.458Z,97632.96
2017-11-04T04:50:17.102Z,97629.61
2017-11-04T04:50:48.755Z,97632.23
2017-11-04T04:51:20.402Z,97633.45
2017-11-04T04:51:52.063Z,97634.72
2017-11-04T04:52:23.718Z,97630.90
2017-11-04T04:52:55.370Z,97633.45
2017-11-04T04:53:27.065Z,97632.17
2017-11-04T04:53:58.710Z,97631.32
2017-11-04T04:54:30.353Z,97634.73
2017-11-04T04:55:02.002Z,97633.04
2017-11-04T04:55:33.657Z,97624.58
2017-11-04T04:56:05.310Z,97626.72
2017-11-04T04:56:37.097Z,97628.86
2017-11-04T04:57:08.755Z,97630.55
2017-11-04T04:57:40.398Z,97631.45
2017-11-04T04:58:12.061Z,97633.11
2017-11-04T04:58:43.722Z,97630.56
2017-11-04T04:59:15.371Z,97631.04
2017-11-04T04:59:47.061Z,97631.03
2017-11-04T05:00:18.718Z,97629.75
2017-11-04T05:00:50.362Z,97629.34
2017-11-04T05:01:22.005Z,97631.46
2017-11-04T05:01:53.650Z,97627.64
2017-11-04T05:02:25.301Z,97626.84
2017-11-04T05:02:56.945Z,97627.70
2017-11-04T05:03:28.597Z,97626.02
2017-11-04T05:04:00.245Z,97626.38
2017-11-04T05:04:31.894Z,97625.95
2017-11-04T05:05:03.581Z,97625.95
2017-11-04T05:05:35.231Z,97625.95
2017-11-04T05:06:06.877Z,97623.03
2017-11-04T05:06:38.524Z,97624.73
2017-11-04T05:07:10.174Z,97620.48
2017-11-04T05:07:41.881Z,97622.59
2017-11-04T05:08:13.834Z,97617.45
2017-11-04T05:08:45.674Z,97616.16
2017-11-04T05:09:17.374Z,97616.16
2017-11-04T05:09:49.026Z,97621.20
2017-11-04T05:10:20.705Z,97621.14
2017-11-04T05:10:52.529Z,97615.59
2017-11-04T05:11:24.300Z,97615.10
2017-11-04T05:11:55.949Z,97620.56
2017-11-04T05:12:27.598Z,97617.93
2017-11-04T05:12:59.241Z,97620.83
2017-11-04T05:13:30.885Z,97620.33
2017-11-04T05:14:02.530Z,97616.48
2017-11-04T05:14:34.419Z,97616.85
2017-11-04T05:15:06.069Z,97622.74
2017-11-04T05:15:37.741Z,97613.31
2017-11-04T05:16:09.394Z,97616.69
2017-11-04T05:16:41.045Z,97621.30
2017-11-04T05:17:12.695Z,97617.84
2017-11-04T05:17:44.341Z,97614.83
2017-11-04T05:18:16.271Z,97609.31
2017-11-04T05:18:47.922Z,97616.04
2017-11-04T05:19:19.574Z,97612.98
2017-11-04T05:19:51.491Z,97613.34
2017-11-04T05:20:23.327Z,97616.27
2017-11-04T05:20:56.219Z,97617.13
2017-11-04T05:21:27.873Z,97611.99
2017-11-04T05:21:59.522Z,97614.95
2017-11-04T05:22:31.166Z,97617.46
2017-11-04T05:23:02.818Z,97617.04
2017-11-04T05:23:34.465Z,97611.50
2017-11-04T05:24:06.122Z,97614.88
2017-11-04T05:24:37.803Z,97617.86
2017-11-04T05:25:09.454Z,97620.77
2017-11-04T05:25:41.102Z,97619.44
2017-11-04T05:26:12.750Z,97621.55
2017-11-04T05:26:44.401Z,97617.70
2017-11-04T05:27:16.110Z,97619.85
2017-11-04T05:27:47.781Z,97615.11
2017-11-04T05:28:19.441Z,97627.02
2017-11-04T05:28:51.089Z,97619.78
2017-11-04T05:29:22.916Z,97619.29
2017-11-04T05:29:54.566Z,97621.05
2017-11-04T05:30:26.217Z,97617.55
2017-11-04T05:30:57.866Z,97620.91
2017-11-04T05:31:29.513Z,97618.36
2017-11-04T05:32:01.162Z,97615.02
2017-11-04T05:32:32.814Z,97617.98
2017-11-04T05:33:04.689Z,97614.53
2017-11-04T05:33:36.638Z,97616.63
2017-11-04T05:34:08.290Z,97618.30
2017-11-04T05:34:39.942Z,97618.75
2017-11-04T05:35:11.652Z,97615.37
2017-11-04T05:35:43.514Z,97618.35
2017-11-04T05:36:15.173Z,97620.41
2017-11-04T05:36:46.822Z,97615.73
2017-11-04T05:37:18.487Z,97620.45
2017-11-04T05:37:50.137Z,97617.91
2017-11-04T05:38:21.781Z,97615.80
2017-11-04T05:38:53.489Z,97614.59
2017-11-04T05:39:25.315Z,97615.87
2017-11-04T05:39:56.968Z,97617.16
2017-11-04T05:40:28.614Z,97611.60
2017-11-04T05:41:00.266Z,97615.94
2017-11-04T05:41:31.917Z,97618.08
2017-11-04T05:42:03.565Z,97613.41
2017-11-04T05:42:35.214Z,97616.42
2017-11-04T05:43:06.865Z,97616.45
2017-11-04T05:43:38.513Z,97622.84
2017-11-04T05:44:10.383Z,97618.23
2017-11-04T05:44:42.046Z,97619.52
2017-11-04T05:45:13.930Z,97613.19
2017-11-04T05:45:45.578Z,97618.72
2017-11-04T05:46:17.231Z,97611.98
2017-11-04T05:46:48.912Z,97612.77
2017-11-04T05:47:20.605Z,97612.34
2017-11-04T05:47:52.254Z,97614.48
2017-11-04T05:48:23.903Z,97616.23
2017-11-04T05:48:58.385Z,97617.09
2017-11-04T05:49:30.030Z,97614.98
2017-11-04T05:50:01.678Z,97615.06
2017-11-04T05:50:33.350Z,97615.08
2017-11-04T05:51:05.121Z,97622.79
2017-11-04T05:51:38.578Z,97614.33
2017-11-04T05:52:10.249Z,97616.89
2017-11-04T05:52:41.949Z,97618.61
2017-11-04T05:53:13.607Z,97623.30
2017-11-04T05:53:45.481Z,97618.27
2017-11-04T05:54:17.431Z,97622.08
2017-11-04T05:54:49.085Z,97619.11
2017-11-04T05:55:20.738Z,97624.22
2017-11-04T05:55:54.321Z,97625.13
2017-11-04T05:56:25.970Z,97615.79
2017-11-04T05:56:57.625Z,97616.64
2017-11-04T05:57:29.274Z,97617.55
2017-11-04T05:58:01.075Z,97620.53
2017-11-04T05:58:32.731Z,97618.03
2017-11-04T05:59:04.377Z,97613.81
2017-11-04T05:59:36.029Z,97613.82
2017-11-04T06:00:07.677Z,97614.30
2017-11-04T06:00:39.592Z,97615.16
2017-11-04T06:01:11.257Z,97619.41
2017-11-04T06:01:43.181Z,97617.77
2017-11-04T06:02:14.837Z,97613.95
2017-11-04T06:02:46.491Z,97613.11
2017-11-04T06:03:18.133Z,97618.68
2017-11-04T06:03:49.787Z,97617.00
2017-11-04T06:04:21.450Z,97619.12
2017-11-04T06:04:53.162Z,97611.92
2017-11-04T06:05:24.818Z,97607.21
2017-11-04T06:05:56.477Z,97615.72
2017-11-04T06:06:28.126Z,97608.98
2017-11-04T06:06:59.778Z,97611.48
2017-11-04T06:07:31.553Z,97617.48
2017-11-04T06:08:03.206Z,97611.56
2017-11-04T06:08:34.854Z,97612.88
2017-11-04T06:09:06.510Z,97613.73
2017-11-04T06:09:38.175Z,97612.02
2017-11-04T06:10:10.070Z,97613.73
2017-11-04T06:10:41.779Z,97614.58
2017-11-04T06:11:13.662Z,97612.46
2017-11-04T06:11:45.317Z,97613.72
2017-11-04T06:12:16.966Z,97611.61